Prince George, Canada
Current Conditions -  °F | °C
As of 6:00 AM on Thursday 29 Jan 2015 (Local Time) from CYXS Reporting Station
Overcast Overcast  
Wind Chill: 23°   Ceiling: 8000
Heat Index: 28°   Visibility: 9mi
Dew Point: 25°   Wind: 5mph
Humidity: 86%   Direction: 220°SW
Pressure: 30.27"   Gusts: NA
Location:  53.91°N, 122.75°W
Report Text: CYXS 291400Z AUTO 22004KT 9SM BKN080 OVC089 M02/M04 A3027 RMK SLP289
Loading
Personal Weather Stations






























Interactive Weather Map New forecast layout! Learn more

10-Day Weather Forecast

Advertisements
Track Severe Weather on mobile